METAR rapporten vliegvelden

   
EHVK - Volkel Rnlafb, Netherlands
Afstand tot: ZW 18 km
Gewijzigd: 06-12-2019 01:55
Verouderd
Nevel, Grotendeels bewolkt  
Nevel, Grotendeels bewolkt  
   Wind: ZZW 29.6 km/h
Wind: ZZW 29.6 km/h
Temperatuur: 3°C
Voelt als: -3°C
Dauwpunt: 1°C
Vochtigheid: 87%
Barometer: 1014 hPa
Bewolking: Grotendeels bewolkt
Zicht: 8 km
Bewolking: Grotendeels bewolkt 1000 ft,
Grotendeels bewolkt 8100 ft,
Grotendeels bewolkt 9700 ft
EHVK 060055Z AUTO 21016KT 170V240 8000 BR BKN010 BKN081 BKN097 03/01 Q1014 BLACKGRN
EDLV - Niederrhein, Germany
Afstand tot: ZO 25 km
Gewijzigd: 06-12-2019 04:50
Grotendeels bewolkt  
Grotendeels bewolkt  
   Wind: ZZW 22.2 km/h
Wind: ZZW 22.2 km/h
Temperatuur: 3°C
Voelt als: -2°C
Dauwpunt: 2°C
Vochtigheid: 93%
Barometer: 1013 hPa
Bewolking: Grotendeels bewolkt
Zicht: meer dan 10 km
Bewolking: Grotendeels bewolkt 1200 ft
EDLV 060350Z 21012KT 9999 BKN012 03/02 Q1013
EHDL - Deelen Rnlafb, Netherlands
Afstand tot: N 35 km
Gewijzigd: 06-12-2019 04:55
Nevel, Bewolking  
Nevel, Bewolking  
   Wind: ZZW 31.5 km/h
Wind: ZZW 31.5 km/h
Temperatuur: 4°C
Voelt als: -1°C
Dauwpunt: 3°C
Vochtigheid: 93%
Barometer: 1011 hPa
Bewolking: Bewolking
Zicht: 4 km
Bewolking: Licht bewolkt 500 ft,
Grotendeels bewolkt 600 ft,
Bewolking 800 ft
EHDL 060355Z AUTO 21017KT 150V260 4400 BR FEW005 BKN006 OVC008 04/03 Q1011 REDZ YLO
EHEH - Eindhoven Rnlafb, Netherlands
Afstand tot: ZW 48 km
Gewijzigd: 06-12-2019 04:25
Nevel, Bewolking  
Nevel, Bewolking  
   Wind: ZZW 25.9 km/h
Wind: ZZW 25.9 km/h
Temperatuur: 4°C
Voelt als: -1°C
Dauwpunt: 2°C
Vochtigheid: 87%
Barometer: 1013 hPa
Bewolking: Bewolking
Zicht: 8 km
Bewolking: Licht bewolkt 900 ft,
Grotendeels bewolkt 1000 ft,
Bewolking 1300 ft
EHEH 060325Z AUTO 21014KT 180V240 8000 BR FEW009 BKN010 OVC013 04/02 Q1013 GRN
EHGR - Gilze-Rijen Rnla, Netherlands
Afstand tot: WZW 70 km
Gewijzigd: 06-12-2019 04:55
Nevel, Bewolking  
Nevel, Bewolking  
   Wind: ZZW 22.2 km/h
Wind: ZZW 22.2 km/h
Temperatuur: 4°C
Voelt als: -1°C
Dauwpunt: 2°C
Vochtigheid: 87%
Barometer: 1012 hPa
Bewolking: Bewolking
Zicht: 8 km
Bewolking: Licht bewolkt 800 ft,
Grotendeels bewolkt 900 ft,
Bewolking 1300 ft
EHGR 060355Z AUTO 21012KT 160V260 8000 BR FEW008 BKN009 OVC013 04/02 Q1012 GRN
EBBL - Kleine-Brogel(Ba, Belgium
Afstand tot: ZZW 71 km
Gewijzigd: 06-12-2019 04:25
Gedeeltelijk bewolkt  
Gedeeltelijk bewolkt  
   Wind: ZZW 22.2 km/h
Wind: ZZW 22.2 km/h
Temperatuur: 2°C
Voelt als: -3°C
Dauwpunt: 0°C
Vochtigheid: 87%
Barometer: 1014 hPa
Bewolking: Gedeeltelijk bewolkt
Zicht: meer dan 10 km
Bewolking: Licht bewolkt 1000 ft,
Gedeeltelijk bewolkt 4900 ft
EBBL 060325Z AUTO 21012KT 9999 FEW010/// SCT049/// 02/00 Q1014 BLU

Script ontwikkeld door  Saratoga-weather.org Aangepast voor de template door  Weerstation Leuven